Terminal Aerodrome Forecast
Issued by NWS Portland, OR

Current Version | Previous Version | Text Only | Print | Product List | Glossary On
Versions: 1 2 3 4 5 6 7 8 9 10 11 12 13 14 15 16 17 18 19 20 21 22 23 24 25 26 27 28 29 30 31 32 33 34
000
FTUS46 KPQR 232320
TAFTTD
TAF
KTTD 232320Z 2400/2424 15003KT P6SM -RA SCT040 BKN060
     FM240200 20010KT P6SM -SHRA SCT025 BKN040
     FM241200 19007KT P6SM -RA OVC020
     FM241800 22006KT P6SM VCSH BKN040=

USA.gov is the U.S. government's official web portal to all federal, state and local government web resources and services.